createdAt,value
2018-08-16T00:01:29.976Z,83.39
2018-08-16T00:03:59.224Z,83.30
2018-08-16T00:06:28.354Z,83.27
2018-08-16T00:08:57.462Z,81.83
2018-08-16T00:11:27.578Z,80.66
2018-08-16T00:13:56.800Z,81.19
2018-08-16T00:16:25.956Z,81.30
2018-08-16T00:18:56.355Z,81.78
2018-08-16T00:21:25.399Z,81.88
2018-08-16T00:23:54.467Z,81.84
2018-08-16T00:26:23.749Z,81.96
2018-08-16T00:28:53.766Z,81.88
2018-08-16T00:31:25.913Z,82.00
2018-08-16T00:33:55.081Z,80.82
2018-08-16T00:36:24.174Z,80.33
2018-08-16T00:38:54.333Z,80.22
2018-08-16T00:41:56.001Z,80.61
2018-08-16T00:44:26.172Z,80.98
2018-08-16T00:58:56.542Z,81.30
2018-08-16T01:01:25.621Z,80.96
2018-08-16T01:03:55.217Z,80.77
2018-08-16T01:06:24.390Z,81.94
2018-08-16T01:08:54.436Z,81.27
2018-08-16T01:11:23.662Z,81.84
2018-08-16T01:13:53.066Z,81.83
2018-08-16T01:16:46.139Z,81.40
2018-08-16T01:19:15.443Z,81.67
2018-08-16T01:21:46.300Z,81.90
2018-08-16T01:24:48.397Z,81.54
2018-08-16T01:27:17.698Z,81.22
2018-08-16T01:29:46.886Z,81.03
2018-08-16T01:32:15.948Z,80.67
2018-08-16T01:34:45.035Z,80.04
2018-08-16T01:37:16.675Z,79.94
2018-08-16T01:39:45.731Z,80.42
2018-08-16T01:42:21.470Z,79.51
2018-08-16T01:44:50.511Z,79.44
2018-08-16T01:47:19.556Z,79.85
2018-08-16T01:49:48.721Z,79.79
2018-08-16T01:52:18.179Z,79.82
2018-08-16T01:54:47.402Z,79.80
2018-08-16T01:57:16.655Z,80.31
2018-08-16T01:59:45.780Z,80.13
2018-08-16T02:02:19.273Z,79.52
2018-08-16T02:04:48.580Z,79.07
2018-08-16T02:07:19.161Z,80.40
2018-08-16T02:09:52.819Z,79.03
2018-08-16T02:12:21.971Z,80.39
2018-08-16T02:14:51.045Z,79.99
2018-08-16T02:17:20.267Z,80.96
2018-08-16T02:19:58.005Z,79.82
2018-08-16T02:22:27.133Z,79.90
2018-08-16T02:24:56.394Z,79.88
2018-08-16T02:27:26.165Z,79.99
2018-08-16T02:29:55.202Z,80.21
2018-08-16T02:32:24.326Z,80.60
2018-08-16T02:34:53.531Z,79.98
2018-08-16T02:37:23.539Z,80.55
2018-08-16T02:39:56.193Z,80.51
2018-08-16T02:42:25.679Z,81.96
2018-08-16T02:44:54.727Z,80.79
2018-08-16T02:47:44.308Z,81.50
2018-08-16T02:50:13.463Z,81.49
2018-08-16T02:52:47.016Z,81.72
2018-08-16T02:55:18.518Z,81.49
2018-08-16T02:57:47.638Z,81.49
2018-08-16T03:00:23.664Z,81.28
2018-08-16T03:02:52.858Z,82.14
2018-08-16T03:05:22.040Z,82.06
2018-08-16T03:07:52.015Z,81.42
2018-08-16T03:10:21.020Z,81.06
2018-08-16T03:13:22.850Z,80.61
2018-08-16T03:15:51.946Z,80.92
2018-08-16T03:18:21.384Z,81.58
2018-08-16T03:20:50.451Z,81.27
2018-08-16T03:23:19.604Z,80.93
2018-08-16T03:25:49.031Z,80.35
2018-08-16T03:28:18.128Z,80.95
2018-08-16T03:30:47.181Z,80.24
2018-08-16T03:33:16.269Z,80.12
2018-08-16T03:38:59.348Z,80.01
2018-08-16T03:41:28.421Z,80.89
2018-08-16T03:43:57.438Z,80.58
2018-08-16T03:46:27.746Z,80.61
2018-08-16T03:48:56.884Z,80.70
2018-08-16T03:51:27.391Z,81.76
2018-08-16T03:53:56.675Z,80.91
2018-08-16T03:56:25.835Z,82.01
2018-08-16T03:58:54.778Z,80.95
2018-08-16T04:01:23.893Z,81.58
2018-08-16T04:03:52.986Z,81.76
2018-08-16T04:06:22.064Z,81.75
2018-08-16T04:12:15.135Z,82.62
2018-08-16T04:14:44.490Z,82.27
2018-08-16T04:17:13.944Z,81.84
2018-08-16T04:20:32.724Z,82.21
2018-08-16T04:23:02.128Z,83.60
2018-08-16T04:25:31.314Z,82.51
2018-08-16T04:28:00.736Z,82.91
2018-08-16T04:30:30.458Z,83.02
2018-08-16T04:32:59.610Z,82.80
2018-08-16T04:35:28.765Z,82.62
2018-08-16T04:37:58.031Z,81.85
2018-08-16T04:40:27.052Z,81.22
2018-08-16T04:43:13.530Z,80.71
2018-08-16T04:45:42.671Z,80.06
2018-08-16T04:53:14.090Z,81.09
2018-08-16T04:55:43.097Z,79.84
2018-08-16T04:58:12.162Z,78.53
2018-08-16T05:00:41.389Z,78.00
2018-08-16T05:03:10.754Z,76.66
2018-08-16T05:05:39.958Z,75.37
2018-08-16T05:08:09.646Z,74.46
2018-08-16T05:10:38.654Z,73.62
2018-08-16T05:13:08.134Z,72.31
2018-08-16T05:15:53.754Z,71.29
2018-08-16T05:18:30.360Z,69.69
2018-08-16T05:21:15.285Z,69.95
2018-08-16T05:24:05.616Z,68.24
2018-08-16T05:29:49.979Z,67.48
2018-08-16T05:32:20.842Z,66.45
2018-08-16T05:34:56.128Z,65.53
2018-08-16T05:37:25.316Z,64.01
2018-08-16T05:40:10.210Z,63.22
2018-08-16T05:42:40.032Z,63.00
2018-08-16T05:45:20.365Z,63.19
2018-08-16T05:51:02.821Z,61.19
2018-08-16T05:53:34.413Z,61.82
2018-08-16T05:56:03.675Z,60.58
2018-08-16T05:59:00.169Z,60.99
2018-08-16T06:15:09.922Z,56.61
2018-08-16T06:17:45.594Z,58.13
2018-08-16T06:20:18.444Z,54.58
2018-08-16T06:22:47.527Z,55.26
2018-08-16T06:25:20.577Z,54.63
2018-08-16T06:27:49.683Z,52.26
2018-08-16T06:30:21.764Z,52.79
2018-08-16T06:32:50.942Z,52.39
2018-08-16T06:35:21.266Z,51.77
2018-08-16T06:37:50.409Z,50.42
2018-08-16T06:40:21.756Z,49.25
2018-08-16T06:42:51.086Z,50.31
2018-08-16T06:45:21.116Z,49.52
2018-08-16T06:47:50.814Z,50.95
2018-08-16T06:50:21.147Z,48.76
2018-08-16T06:52:50.210Z,49.85
2018-08-16T06:55:20.289Z,48.69
2018-08-16T06:57:49.626Z,48.62
2018-08-16T07:00:21.175Z,47.60
2018-08-16T07:02:50.272Z,48.04
2018-08-16T07:05:20.692Z,47.90
2018-08-16T07:07:50.026Z,45.53
2018-08-16T07:10:22.660Z,47.45
2018-08-16T07:12:51.931Z,46.96
2018-08-16T07:15:21.719Z,49.19
2018-08-16T07:17:50.958Z,47.62
2018-08-16T07:20:21.195Z,48.05
2018-08-16T07:22:50.602Z,48.84
2018-08-16T07:25:21.891Z,46.88
2018-08-16T07:27:51.114Z,46.94
2018-08-16T07:30:21.539Z,47.01
2018-08-16T07:32:50.652Z,47.61
2018-08-16T07:35:21.411Z,48.17
2018-08-16T07:37:50.555Z,48.21
2018-08-16T07:40:23.377Z,49.80
2018-08-16T07:42:52.534Z,48.34
2018-08-16T07:45:22.018Z,45.77
2018-08-16T07:47:51.109Z,43.34
2018-08-16T07:50:22.175Z,43.78
2018-08-16T07:52:51.378Z,44.77
2018-08-16T07:55:22.625Z,45.18
2018-08-16T07:57:51.873Z,49.14
2018-08-16T08:00:21.535Z,50.74
2018-08-16T08:02:50.893Z,52.14
2018-08-16T08:05:22.220Z,50.48
2018-08-16T08:07:51.338Z,50.39
2018-08-16T08:10:22.617Z,52.08
2018-08-16T08:12:51.815Z,49.83
2018-08-16T08:15:21.803Z,51.57
2018-08-16T08:17:51.494Z,48.89
2018-08-16T08:21:05.205Z,47.04
2018-08-16T08:24:15.267Z,44.92
2018-08-16T08:30:21.944Z,53.49
2018-08-16T08:32:52.618Z,53.09
2018-08-16T08:38:36.889Z,54.50
2018-08-16T08:41:06.916Z,53.46
2018-08-16T08:43:46.766Z,53.32
2018-08-16T08:46:16.038Z,52.10
2018-08-16T08:48:45.190Z,48.35
2018-08-16T08:51:14.305Z,49.22
2018-08-16T08:55:02.602Z,49.98
2018-08-16T08:57:42.510Z,48.39
2018-08-16T09:00:12.248Z,48.39
2018-08-16T09:02:41.800Z,46.49
2018-08-16T09:05:11.439Z,45.99
2018-08-16T09:07:40.356Z,44.29
2018-08-16T09:11:18.066Z,45.81
2018-08-16T09:13:59.197Z,48.93
2018-08-16T09:16:32.731Z,45.81
2018-08-16T09:19:02.122Z,46.41
2018-08-16T09:21:31.891Z,46.85
2018-08-16T09:24:01.201Z,45.78
2018-08-16T09:26:35.194Z,43.12
2018-08-16T09:29:10.697Z,43.88
2018-08-16T09:31:50.555Z,45.99
2018-08-16T09:34:23.005Z,45.28
2018-08-16T09:36:52.971Z,45.46
2018-08-16T09:39:22.184Z,46.40
2018-08-16T09:41:51.384Z,47.38
2018-08-16T09:44:20.483Z,46.32
2018-08-16T09:47:01.579Z,44.33
2018-08-16T09:49:38.293Z,43.00
2018-08-16T09:52:08.853Z,43.04
2018-08-16T09:54:37.995Z,43.60
2018-08-16T09:57:09.161Z,45.70
2018-08-16T09:59:38.288Z,47.23
2018-08-16T10:02:10.795Z,47.70
2018-08-16T10:04:39.897Z,47.67
2018-08-16T10:07:09.392Z,46.22
2018-08-16T10:09:38.517Z,45.31
2018-08-16T10:12:07.720Z,46.11
2018-08-16T10:14:37.186Z,41.73
2018-08-16T10:17:06.296Z,46.09
2018-08-16T10:19:35.380Z,44.90
2018-08-16T10:22:04.747Z,45.69
2018-08-16T10:24:33.995Z,44.34
2018-08-16T10:27:03.216Z,45.27
2018-08-16T10:29:32.653Z,42.77
2018-08-16T10:32:01.876Z,39.86
2018-08-16T10:34:30.893Z,38.20
2018-08-16T10:36:59.964Z,35.77
2018-08-16T10:39:29.117Z,37.92
2018-08-16T10:42:02.079Z,39.89
2018-08-16T10:44:31.078Z,38.77
2018-08-16T10:47:00.234Z,41.20
2018-08-16T10:49:30.137Z,42.11
2018-08-16T10:51:59.257Z,39.39
2018-08-16T10:54:28.299Z,37.55
2018-08-16T10:56:58.109Z,38.86
2018-08-16T10:59:27.441Z,39.34
2018-08-16T11:01:56.465Z,38.54
2018-08-16T11:04:25.664Z,38.31
2018-08-16T11:06:54.762Z,41.48
2018-08-16T11:09:23.892Z,41.47
2018-08-16T11:11:52.893Z,39.85
2018-08-16T11:14:22.028Z,38.93
2018-08-16T11:16:51.098Z,40.50
2018-08-16T11:19:20.166Z,39.31
2018-08-16T11:21:49.310Z,41.19
2018-08-16T11:24:18.346Z,39.94
2018-08-16T11:26:47.267Z,41.40
2018-08-16T11:29:16.310Z,41.62
2018-08-16T11:31:45.422Z,39.56
2018-08-16T11:34:14.406Z,41.29
2018-08-16T11:36:43.519Z,41.11
2018-08-16T11:39:12.541Z,39.30
2018-08-16T11:41:41.498Z,38.52
2018-08-16T11:44:11.230Z,39.19
2018-08-16T11:46:40.329Z,39.60
2018-08-16T11:49:09.971Z,37.26
2018-08-16T11:51:39.315Z,39.22
2018-08-16T11:54:08.828Z,38.92
2018-08-16T11:56:37.851Z,39.34
2018-08-16T11:59:08.390Z,37.91
2018-08-16T12:01:37.864Z,38.87
2018-08-16T12:04:06.867Z,38.54
2018-08-16T12:06:36.364Z,41.55
2018-08-16T12:09:08.516Z,39.86
2018-08-16T12:11:37.616Z,39.15
2018-08-16T12:14:06.597Z,38.04
2018-08-16T12:16:35.630Z,37.34
2018-08-16T12:19:04.696Z,39.42
2018-08-16T12:21:34.839Z,37.48
2018-08-16T12:24:03.949Z,40.90
2018-08-16T12:26:33.009Z,39.01
2018-08-16T12:29:02.048Z,40.13
2018-08-16T12:31:30.960Z,39.29
2018-08-16T12:34:00.109Z,35.96
2018-08-16T12:36:29.122Z,34.77
2018-08-16T12:38:58.573Z,35.73
2018-08-16T12:41:29.419Z,37.04
2018-08-16T12:43:58.866Z,38.61
2018-08-16T12:46:27.953Z,38.28
2018-08-16T12:49:06.149Z,39.85
2018-08-16T12:51:38.280Z,39.56
2018-08-16T12:54:08.417Z,38.16
2018-08-16T12:56:37.476Z,36.06
2018-08-16T12:59:06.707Z,35.23
2018-08-16T13:01:35.665Z,35.09
2018-08-16T13:04:05.888Z,36.28
2018-08-16T13:07:03.487Z,34.15
2018-08-16T13:10:10.440Z,36.25
2018-08-16T13:15:53.388Z,36.19
2018-08-16T13:18:22.471Z,34.97
2018-08-16T13:20:51.521Z,34.91
2018-08-16T13:23:20.798Z,37.01
2018-08-16T13:25:50.024Z,38.17
2018-08-16T13:28:19.090Z,38.67
2018-08-16T13:30:48.283Z,35.94
2018-08-16T13:33:17.254Z,38.42
2018-08-16T13:35:46.450Z,39.21
2018-08-16T13:38:15.459Z,38.11
2018-08-16T13:40:44.502Z,34.30
2018-08-16T13:43:13.543Z,33.70
2018-08-16T13:45:42.688Z,35.88
2018-08-16T13:48:12.378Z,37.04
2018-08-16T13:50:41.438Z,36.31
2018-08-16T13:53:10.950Z,35.93
2018-08-16T13:55:39.965Z,34.47
2018-08-16T13:58:09.616Z,32.98
2018-08-16T14:00:38.563Z,33.94
2018-08-16T14:03:07.703Z,35.46
2018-08-16T14:05:36.778Z,36.30
2018-08-16T14:08:06.464Z,35.60
2018-08-16T14:10:35.709Z,33.61
2018-08-16T14:13:04.875Z,33.12
2018-08-16T14:15:34.318Z,34.87
2018-08-16T14:18:03.380Z,34.83
2018-08-16T14:20:32.506Z,32.99
2018-08-16T14:23:02.026Z,34.98
2018-08-16T14:25:31.079Z,35.67
2018-08-16T14:28:00.297Z,35.29
2018-08-16T14:30:29.210Z,34.72
2018-08-16T14:32:58.219Z,34.89
2018-08-16T14:35:27.264Z,36.59
2018-08-16T14:37:56.288Z,35.33
2018-08-16T14:40:25.677Z,37.82
2018-08-16T14:42:54.615Z,37.32
2018-08-16T14:45:23.646Z,37.04
2018-08-16T14:47:52.822Z,37.30
2018-08-16T14:50:21.839Z,39.30
2018-08-16T14:52:51.194Z,38.62
2018-08-16T14:55:20.964Z,38.70
2018-08-16T14:57:50.023Z,37.68
2018-08-16T15:00:23.411Z,38.16
2018-08-16T15:02:52.739Z,39.10
2018-08-16T15:05:27.561Z,39.42
2018-08-16T15:07:59.275Z,38.56
2018-08-16T15:10:28.445Z,38.66
2018-08-16T15:12:58.220Z,40.26
2018-08-16T15:15:27.355Z,40.56
2018-08-16T15:17:56.670Z,40.07
2018-08-16T15:20:26.104Z,39.27
2018-08-16T15:22:56.892Z,38.94
2018-08-16T15:25:25.948Z,40.52
2018-08-16T15:27:54.933Z,39.88
2018-08-16T15:30:24.082Z,39.30
2018-08-16T15:32:53.074Z,40.34
2018-08-16T15:35:22.179Z,40.37
2018-08-16T15:37:51.197Z,40.04
2018-08-16T15:40:20.393Z,38.92
2018-08-16T15:42:49.418Z,39.99
2018-08-16T15:45:19.593Z,40.46
2018-08-16T15:47:48.590Z,40.76
2018-08-16T15:50:19.236Z,40.54
2018-08-16T15:52:48.352Z,41.83
2018-08-16T15:55:21.866Z,39.67
2018-08-16T15:57:50.976Z,39.87
2018-08-16T16:00:20.034Z,39.81
2018-08-16T16:02:49.131Z,40.49
2018-08-16T16:05:19.230Z,40.22
2018-08-16T16:07:48.326Z,41.69
2018-08-16T16:10:25.827Z,41.38
2018-08-16T16:13:33.947Z,41.76
2018-08-16T16:16:03.020Z,41.71
2018-08-16T16:18:32.083Z,41.58
2018-08-16T16:21:01.216Z,40.82
2018-08-16T16:23:30.855Z,41.97
2018-08-16T16:26:00.279Z,40.75
2018-08-16T16:28:29.261Z,40.92
2018-08-16T16:30:58.581Z,41.95
2018-08-16T16:33:27.632Z,41.45
2018-08-16T16:35:56.815Z,42.10
2018-08-16T16:38:25.938Z,42.42
2018-08-16T16:40:55.709Z,42.82
2018-08-16T16:43:24.783Z,42.49
2018-08-16T16:45:53.870Z,42.87
2018-08-16T16:48:23.821Z,43.64
2018-08-16T16:50:52.800Z,44.17
2018-08-16T16:53:21.905Z,45.89
2018-08-16T16:55:50.902Z,45.70
2018-08-16T16:58:20.002Z,47.44
2018-08-16T17:00:49.113Z,48.93
2018-08-16T17:03:18.315Z,48.65
2018-08-16T17:05:47.508Z,48.48
2018-08-16T17:08:16.615Z,48.87
2018-08-16T17:11:09.069Z,49.06
2018-08-16T17:13:39.820Z,49.03
2018-08-16T17:16:09.505Z,48.71
2018-08-16T17:18:38.753Z,50.04
2018-08-16T17:21:08.016Z,49.86
2018-08-16T17:23:37.247Z,48.90
2018-08-16T17:26:06.821Z,50.04
2018-08-16T17:28:35.808Z,49.54
2018-08-16T17:31:04.948Z,50.80
2018-08-16T17:33:52.711Z,51.20
2018-08-16T17:36:21.946Z,51.25
2018-08-16T17:38:55.827Z,50.34
2018-08-16T17:41:24.872Z,51.53
2018-08-16T17:43:54.377Z,51.26
2018-08-16T17:46:23.326Z,50.74
2018-08-16T17:48:55.448Z,50.98
2018-08-16T17:51:25.354Z,50.63
2018-08-16T17:53:54.799Z,51.97
2018-08-16T17:56:23.918Z,52.42
2018-08-16T17:58:53.156Z,51.49
2018-08-16T18:01:22.887Z,52.20
2018-08-16T18:03:51.989Z,52.42
2018-08-16T18:06:21.164Z,51.06
2018-08-16T18:08:50.187Z,52.34
2018-08-16T18:11:19.288Z,53.30
2018-08-16T18:13:48.785Z,52.97
2018-08-16T18:16:17.995Z,53.85
2018-08-16T18:18:46.991Z,54.05
2018-08-16T18:21:16.349Z,53.83
2018-08-16T18:23:45.314Z,54.11
2018-08-16T18:26:14.291Z,54.29
2018-08-16T18:28:43.955Z,55.82
2018-08-16T18:31:13.731Z,55.34
2018-08-16T18:33:43.169Z,55.82
2018-08-16T18:36:13.094Z,56.71
2018-08-16T18:38:42.560Z,56.55
2018-08-16T18:41:12.575Z,57.08
2018-08-16T18:43:42.030Z,56.05
2018-08-16T18:46:11.944Z,55.77
2018-08-16T18:48:41.469Z,56.39
2018-08-16T18:51:11.431Z,57.24
2018-08-16T18:53:40.898Z,56.62
2018-08-16T18:56:10.892Z,57.58
2018-08-16T18:58:40.357Z,58.36
2018-08-16T19:01:10.237Z,58.87
2018-08-16T19:03:39.662Z,57.84
2018-08-16T19:06:09.167Z,57.70
2018-08-16T19:08:38.673Z,58.46
2018-08-16T19:11:08.120Z,58.42
2018-08-16T19:13:38.030Z,59.75
2018-08-16T19:16:07.765Z,60.63
2018-08-16T19:18:37.117Z,61.52
2018-08-16T19:21:06.691Z,62.74
2018-08-16T19:23:36.113Z,63.18
2018-08-16T19:26:07.674Z,61.49
2018-08-16T19:28:37.157Z,61.06
2018-08-16T19:31:06.860Z,59.82
2018-08-16T19:33:36.419Z,60.51
2018-08-16T19:36:06.105Z,60.44
2018-08-16T19:38:35.593Z,61.50
2018-08-16T19:41:05.149Z,61.71
2018-08-16T19:43:34.776Z,62.84
2018-08-16T19:46:04.274Z,64.11
2018-08-16T19:48:33.940Z,64.25
2018-08-16T19:51:03.706Z,64.67
2018-08-16T19:53:33.227Z,64.06
2018-08-16T19:56:02.778Z,63.19
2018-08-16T20:01:16.507Z,64.76
2018-08-16T20:03:45.918Z,64.89
2018-08-16T20:06:15.410Z,65.19
2018-08-16T20:08:44.761Z,65.68
2018-08-16T20:11:14.965Z,65.58
2018-08-16T20:13:44.594Z,66.75
2018-08-16T20:16:14.283Z,66.93
2018-08-16T20:18:47.307Z,67.65
2018-08-16T20:21:16.768Z,69.34
2018-08-16T20:23:53.622Z,70.34
2018-08-16T20:26:23.568Z,69.80
2018-08-16T20:28:53.210Z,69.40
2018-08-16T20:31:23.979Z,69.65
2018-08-16T20:33:53.899Z,70.57
2018-08-16T20:36:28.369Z,71.16
2018-08-16T20:39:21.196Z,71.37
2018-08-16T20:41:51.915Z,71.23
2018-08-16T20:44:21.883Z,70.53
2018-08-16T20:46:52.947Z,70.99
2018-08-16T20:49:27.436Z,70.73
2018-08-16T20:51:57.188Z,72.23
2018-08-16T20:54:27.661Z,72.29
2018-08-16T20:56:58.619Z,72.71
2018-08-16T20:59:28.457Z,72.63
2018-08-16T21:02:20.043Z,72.62
2018-08-16T21:04:49.808Z,74.09
2018-08-16T21:07:39.136Z,73.56
2018-08-16T21:10:10.833Z,73.82
2018-08-16T21:12:40.595Z,74.62
2018-08-16T21:15:11.096Z,75.55
2018-08-16T21:17:42.936Z,77.17
2018-08-16T21:20:14.220Z,77.09
2018-08-16T21:22:43.742Z,77.20
2018-08-16T21:25:16.113Z,76.43
2018-08-16T21:27:45.609Z,75.96
2018-08-16T21:30:18.184Z,74.99
2018-08-16T21:32:49.337Z,74.50
2018-08-16T21:35:19.359Z,77.48
2018-08-16T21:37:48.852Z,79.44
2018-08-16T21:40:20.403Z,80.31
2018-08-16T21:42:49.845Z,81.78
2018-08-16T21:45:24.079Z,82.44
2018-08-16T21:47:53.161Z,80.99
2018-08-16T21:50:25.465Z,80.99
2018-08-16T21:52:57.041Z,81.19
2018-08-16T21:55:26.342Z,81.70
2018-08-16T21:57:55.479Z,79.42
2018-08-16T22:01:01.712Z,78.58
2018-08-16T22:03:30.868Z,79.78
2018-08-16T22:06:05.129Z,81.44
2018-08-16T22:08:47.975Z,81.06
2018-08-16T22:11:17.127Z,82.63
2018-08-16T22:13:46.497Z,84.02
2018-08-16T22:16:15.753Z,84.47
2018-08-16T22:18:44.882Z,84.10
2018-08-16T22:21:13.946Z,81.16
2018-08-16T22:23:44.228Z,79.85
2018-08-16T22:26:13.380Z,80.23
2018-08-16T22:28:56.857Z,80.94
2018-08-16T22:31:25.981Z,81.48
2018-08-16T22:33:55.152Z,80.42
2018-08-16T22:36:24.391Z,81.02
2018-08-16T22:38:53.616Z,80.75
2018-08-16T22:41:22.712Z,81.35
2018-08-16T22:43:51.960Z,80.11
2018-08-16T22:46:21.068Z,79.10
2018-08-16T22:48:50.140Z,79.09
2018-08-16T22:51:19.260Z,79.73
2018-08-16T22:53:48.396Z,79.11
2018-08-16T22:56:17.497Z,77.54
2018-08-16T22:58:46.899Z,78.42
2018-08-16T23:01:16.119Z,77.35
2018-08-16T23:03:54.666Z,77.50
2018-08-16T23:06:23.856Z,78.16
2018-08-16T23:08:52.972Z,77.90
2018-08-16T23:11:22.108Z,76.89
2018-08-16T23:13:51.202Z,76.78
2018-08-16T23:16:20.305Z,76.71
2018-08-16T23:18:50.298Z,77.05
2018-08-16T23:21:19.611Z,76.71
2018-08-16T23:23:48.836Z,77.17
2018-08-16T23:26:18.012Z,77.36
2018-08-16T23:28:47.262Z,78.26
2018-08-16T23:31:16.405Z,78.88
2018-08-16T23:33:45.554Z,79.55
2018-08-16T23:36:14.638Z,78.77
2018-08-16T23:38:43.798Z,78.56
2018-08-16T23:41:12.835Z,77.44
2018-08-16T23:43:42.126Z,78.06
2018-08-16T23:46:11.722Z,78.07
2018-08-16T23:48:40.865Z,76.24
2018-08-16T23:51:10.523Z,77.50
2018-08-16T23:53:44.434Z,78.39
2018-08-16T23:56:13.548Z,79.12
2018-08-16T23:58:42.693Z,80.00
